createdAt,value
2023-03-06T00:00:33.277Z,99.90
2023-03-06T00:03:00.492Z,99.90
2023-03-06T00:05:27.910Z,99.90
2023-03-06T00:07:55.212Z,99.90
2023-03-06T00:10:24.468Z,99.90
2023-03-06T00:12:52.735Z,99.90
2023-03-06T00:15:20.725Z,99.90
2023-03-06T00:17:48.296Z,99.90
2023-03-06T00:20:15.759Z,99.90
2023-03-06T00:22:43.262Z,99.90
2023-03-06T00:25:13.034Z,99.90
2023-03-06T00:27:40.383Z,99.90
2023-03-06T00:30:08.601Z,99.90
2023-03-06T00:32:35.885Z,99.90
2023-03-06T00:35:03.608Z,99.90
2023-03-06T00:37:30.898Z,99.90
2023-03-06T00:39:58.270Z,99.90
2023-03-06T00:42:25.835Z,99.90
2023-03-06T00:44:53.108Z,99.90
2023-03-06T00:47:20.502Z,99.90
2023-03-06T00:49:47.984Z,99.90
2023-03-06T00:52:15.621Z,99.90
2023-03-06T00:54:42.913Z,99.90
2023-03-06T00:57:10.153Z,99.90
2023-03-06T00:59:37.393Z,99.90
2023-03-06T01:02:04.700Z,99.90
2023-03-06T01:04:32.030Z,99.90
2023-03-06T01:06:59.337Z,99.90
2023-03-06T01:09:26.535Z,99.90
2023-03-06T01:11:54.274Z,99.90
2023-03-06T01:14:21.568Z,99.90
2023-03-06T01:16:49.112Z,99.90
2023-03-06T01:19:17.810Z,99.90
2023-03-06T01:21:45.832Z,99.90
2023-03-06T01:24:13.014Z,99.90
2023-03-06T01:26:40.264Z,99.90
2023-03-06T01:29:07.468Z,99.90
2023-03-06T01:31:35.073Z,99.90
2023-03-06T01:34:02.286Z,99.90
2023-03-06T01:36:29.520Z,99.90
2023-03-06T01:38:56.751Z,99.90
2023-03-06T01:41:24.379Z,99.90
2023-03-06T01:43:51.628Z,99.90
2023-03-06T01:46:38.763Z,99.90
2023-03-06T01:49:21.853Z,99.90
2023-03-06T01:51:51.910Z,99.90
2023-03-06T01:54:30.984Z,99.90
2023-03-06T01:57:07.095Z,99.90
2023-03-06T01:59:35.893Z,99.90
2023-03-06T02:02:03.902Z,99.90
2023-03-06T02:04:31.789Z,99.90
2023-03-06T02:07:00.493Z,99.90
2023-03-06T02:09:30.162Z,99.90
2023-03-06T02:11:57.828Z,99.90
2023-03-06T02:14:25.129Z,99.90
2023-03-06T02:16:52.468Z,99.90
2023-03-06T02:19:40.027Z,99.90
2023-03-06T02:22:07.311Z,99.90
2023-03-06T02:24:41.000Z,99.90
2023-03-06T02:27:09.931Z,99.90
2023-03-06T02:29:37.852Z,99.90
2023-03-06T02:32:05.634Z,99.90
2023-03-06T02:34:38.816Z,99.90
2023-03-06T02:37:10.215Z,99.90
2023-03-06T02:39:40.151Z,99.90
2023-03-06T02:42:07.411Z,99.90
2023-03-06T02:44:35.906Z,99.90
2023-03-06T02:47:03.128Z,99.90
2023-03-06T02:49:30.374Z,99.90
2023-03-06T02:51:58.604Z,99.90
2023-03-06T02:54:25.826Z,99.90
2023-03-06T02:56:53.060Z,99.90
2023-03-06T02:59:20.283Z,99.90
2023-03-06T03:01:47.830Z,99.90
2023-03-06T03:04:15.191Z,99.90
2023-03-06T03:06:43.208Z,99.90
2023-03-06T03:09:11.675Z,99.90
2023-03-06T03:11:39.129Z,99.90
2023-03-06T03:14:06.367Z,99.90
2023-03-06T03:16:33.665Z,99.90
2023-03-06T03:19:00.911Z,99.90
2023-03-06T03:21:28.246Z,99.90
2023-03-06T03:23:56.152Z,99.90
2023-03-06T03:26:25.876Z,99.90
2023-03-06T03:29:07.620Z,99.90
2023-03-06T03:31:34.930Z,99.90
2023-03-06T03:34:03.496Z,99.90
2023-03-06T03:36:34.124Z,99.90
2023-03-06T03:39:01.676Z,99.90
2023-03-06T03:41:28.999Z,99.90
2023-03-06T03:43:56.564Z,99.90
2023-03-06T03:46:24.554Z,99.90
2023-03-06T03:48:53.544Z,99.90
2023-03-06T03:51:21.945Z,99.90
2023-03-06T03:53:53.067Z,99.90
2023-03-06T03:56:24.369Z,99.90
2023-03-06T03:59:09.863Z,99.90
2023-03-06T04:01:45.930Z,99.90
2023-03-06T04:04:13.787Z,99.90
2023-03-06T04:06:42.319Z,99.90
2023-03-06T04:09:09.842Z,99.90
2023-03-06T04:11:38.655Z,99.90
2023-03-06T04:14:08.271Z,99.90
2023-03-06T04:16:35.851Z,99.90
2023-03-06T04:19:03.323Z,99.90
2023-03-06T04:21:30.574Z,99.90
2023-03-06T04:23:58.551Z,99.90
2023-03-06T04:26:25.836Z,99.90
2023-03-06T04:28:53.169Z,99.90
2023-03-06T04:31:21.275Z,99.90
2023-03-06T04:33:48.448Z,99.90
2023-03-06T04:36:36.080Z,99.90
2023-03-06T04:39:10.169Z,99.90
2023-03-06T04:41:37.444Z,99.90
2023-03-06T04:44:04.883Z,99.90
2023-03-06T04:46:32.612Z,99.90
2023-03-06T04:49:00.041Z,99.90
2023-03-06T04:51:27.752Z,99.90
2023-03-06T04:53:54.953Z,99.90
2023-03-06T04:56:22.158Z,99.90
2023-03-06T04:58:49.343Z,99.90
2023-03-06T05:01:16.587Z,99.90
2023-03-06T05:03:43.860Z,99.90
2023-03-06T05:06:11.078Z,99.90
2023-03-06T05:08:38.647Z,99.90
2023-03-06T05:11:05.849Z,99.90
2023-03-06T05:13:33.060Z,99.90
2023-03-06T05:16:09.439Z,99.90
2023-03-06T05:18:36.747Z,99.90
2023-03-06T05:21:04.694Z,99.90
2023-03-06T05:23:32.667Z,99.90
2023-03-06T05:26:00.038Z,99.90
2023-03-06T05:28:28.640Z,99.90
2023-03-06T05:30:55.890Z,99.90
2023-03-06T05:33:23.346Z,99.90
2023-03-06T05:35:50.743Z,99.90
2023-03-06T05:38:18.300Z,99.90
2023-03-06T05:40:46.077Z,99.90
2023-03-06T05:43:13.259Z,99.90
2023-03-06T05:45:40.752Z,99.90
2023-03-06T05:48:08.282Z,99.90
2023-03-06T05:50:35.488Z,99.90
2023-03-06T05:53:03.011Z,99.90
2023-03-06T05:55:30.381Z,99.90
2023-03-06T05:57:57.631Z,99.90
2023-03-06T06:00:24.999Z,99.90
2023-03-06T06:02:52.254Z,99.90
2023-03-06T06:05:20.505Z,99.90
2023-03-06T06:07:47.724Z,99.90
2023-03-06T06:10:15.277Z,99.90
2023-03-06T06:12:42.442Z,99.90
2023-03-06T06:15:09.829Z,99.90
2023-03-06T06:17:37.066Z,99.90
2023-03-06T06:20:04.523Z,99.90
2023-03-06T06:22:31.797Z,99.90
2023-03-06T06:24:59.143Z,99.90
2023-03-06T06:27:26.368Z,99.90
2023-03-06T06:29:53.646Z,99.90
2023-03-06T06:32:20.908Z,99.90
2023-03-06T06:34:48.160Z,99.90
2023-03-06T06:37:15.536Z,99.90
2023-03-06T06:39:42.834Z,99.90
2023-03-06T06:42:29.891Z,99.90
2023-03-06T06:44:57.443Z,99.90
2023-03-06T06:47:25.791Z,99.90
2023-03-06T06:49:54.128Z,99.90
2023-03-06T06:52:22.008Z,99.90
2023-03-06T06:54:49.185Z,99.90
2023-03-06T06:57:16.413Z,99.90
2023-03-06T06:59:43.577Z,99.90
2023-03-06T07:02:12.236Z,99.90
2023-03-06T07:04:52.423Z,99.90
2023-03-06T07:07:25.407Z,99.90
2023-03-06T07:09:53.398Z,99.90
2023-03-06T07:12:20.618Z,99.90
2023-03-06T07:14:48.439Z,99.90
2023-03-06T07:17:15.639Z,99.90
2023-03-06T07:19:42.839Z,99.90
2023-03-06T07:22:10.167Z,99.90
2023-03-06T07:24:37.457Z,99.90
2023-03-06T07:27:04.747Z,99.90
2023-03-06T07:29:34.034Z,99.90
2023-03-06T07:32:01.381Z,99.90
2023-03-06T07:34:28.764Z,99.90
2023-03-06T07:36:56.037Z,99.90
2023-03-06T07:39:23.321Z,99.90
2023-03-06T07:41:52.196Z,99.90
2023-03-06T07:44:19.389Z,99.90
2023-03-06T07:46:46.639Z,99.90
2023-03-06T07:49:14.022Z,99.90
2023-03-06T07:51:41.227Z,99.90
2023-03-06T07:54:08.455Z,99.90
2023-03-06T07:56:35.675Z,99.90
2023-03-06T07:59:02.980Z,99.90
2023-03-06T08:01:30.281Z,99.90
2023-03-06T08:03:57.735Z,99.90
2023-03-06T08:06:26.007Z,99.90
2023-03-06T08:08:54.031Z,99.90
2023-03-06T08:11:22.926Z,99.90
2023-03-06T08:13:52.614Z,99.90
2023-03-06T08:16:24.419Z,99.90
2023-03-06T08:18:51.748Z,99.90
2023-03-06T08:21:20.572Z,99.90
2023-03-06T08:23:48.088Z,99.90
2023-03-06T08:26:17.197Z,99.90
2023-03-06T08:28:44.532Z,99.90
2023-03-06T08:31:13.836Z,99.90
2023-03-06T08:33:41.106Z,99.90
2023-03-06T08:36:08.426Z,99.90
2023-03-06T08:38:35.622Z,99.90
2023-03-06T08:41:03.153Z,99.90
2023-03-06T08:43:30.460Z,99.90
2023-03-06T08:45:58.436Z,99.90
2023-03-06T08:48:25.804Z,99.90
2023-03-06T08:50:53.369Z,99.90
2023-03-06T08:53:21.618Z,99.90
2023-03-06T08:55:51.535Z,99.90
2023-03-06T08:58:18.739Z,99.90
2023-03-06T09:00:46.433Z,99.90
2023-03-06T09:03:13.654Z,99.90
2023-03-06T09:05:41.084Z,99.90
2023-03-06T09:08:08.835Z,99.90
2023-03-06T09:10:36.531Z,99.90
2023-03-06T09:13:03.801Z,99.90
2023-03-06T09:15:31.036Z,99.90
2023-03-06T09:17:58.269Z,99.90
2023-03-06T09:20:25.467Z,99.90
2023-03-06T09:22:52.653Z,99.90
2023-03-06T09:25:22.458Z,99.90
2023-03-06T09:28:01.797Z,99.90
2023-03-06T09:30:36.122Z,99.90
2023-03-06T09:33:03.374Z,99.90
2023-03-06T09:35:30.665Z,99.90
2023-03-06T09:37:57.886Z,99.90
2023-03-06T09:40:42.568Z,99.90
2023-03-06T09:43:21.560Z,99.90
2023-03-06T09:45:48.829Z,99.90
2023-03-06T09:48:16.530Z,99.90
2023-03-06T09:50:43.693Z,99.90
2023-03-06T09:53:26.236Z,99.90
2023-03-06T09:55:58.781Z,99.90
2023-03-06T09:58:27.714Z,99.90
2023-03-06T10:00:58.035Z,99.90
2023-03-06T10:03:34.342Z,99.90
2023-03-06T10:06:04.504Z,99.90
2023-03-06T10:08:45.282Z,99.90
2023-03-06T10:11:14.634Z,99.90
2023-03-06T10:13:41.807Z,99.90
2023-03-06T10:16:23.066Z,99.90
2023-03-06T10:18:50.599Z,99.90
2023-03-06T10:21:19.523Z,99.90
2023-03-06T10:23:54.621Z,99.90
2023-03-06T10:26:26.616Z,99.80
2023-03-06T10:29:12.346Z,99.90
2023-03-06T10:31:44.589Z,99.90
2023-03-06T10:34:19.747Z,99.50
2023-03-06T10:36:46.985Z,99.50
2023-03-06T10:39:15.610Z,99.60
2023-03-06T10:41:44.121Z,99.80
2023-03-06T10:44:11.855Z,98.40
2023-03-06T10:46:44.063Z,98.40
2023-03-06T10:49:14.110Z,98.50
2023-03-06T10:51:55.018Z,98.40
2023-03-06T10:54:22.532Z,98.90
2023-03-06T10:56:49.731Z,99.50
2023-03-06T10:59:25.457Z,99.00
2023-03-06T11:01:54.385Z,99.30
2023-03-06T11:04:24.396Z,99.10
2023-03-06T11:07:10.277Z,98.00
2023-03-06T11:09:37.518Z,98.80
2023-03-06T11:12:34.087Z,98.30
2023-03-06T11:15:07.818Z,98.00
2023-03-06T11:17:47.584Z,97.20
2023-03-06T11:20:14.816Z,98.00
2023-03-06T11:22:43.189Z,97.80
2023-03-06T11:25:12.068Z,98.70
2023-03-06T11:27:42.722Z,98.40
2023-03-06T11:30:22.416Z,98.70
2023-03-06T11:32:54.010Z,98.30
2023-03-06T11:35:23.809Z,98.50
2023-03-06T11:38:07.050Z,97.90
2023-03-06T11:40:40.264Z,97.50
2023-03-06T11:43:16.635Z,97.50
2023-03-06T11:45:43.776Z,98.00
2023-03-06T11:48:14.198Z,97.80
2023-03-06T11:50:43.216Z,97.70
2023-03-06T11:53:18.580Z,97.60
2023-03-06T11:55:45.788Z,96.70
2023-03-06T11:58:22.129Z,96.60
2023-03-06T12:00:49.326Z,96.90
2023-03-06T12:03:24.179Z,96.80
2023-03-06T12:05:54.163Z,95.90
2023-03-06T12:08:21.331Z,96.00
2023-03-06T12:10:54.367Z,97.20
2023-03-06T12:13:28.612Z,96.80
2023-03-06T12:16:01.765Z,96.00
2023-03-06T12:18:28.968Z,96.80
2023-03-06T12:21:09.659Z,97.00
2023-03-06T12:23:36.842Z,97.30
2023-03-06T12:26:16.019Z,97.50
2023-03-06T12:28:50.410Z,97.40
2023-03-06T12:31:23.721Z,97.30
2023-03-06T12:34:04.206Z,97.70
2023-03-06T12:36:41.496Z,97.40
2023-03-06T12:39:09.857Z,97.50
2023-03-06T12:41:42.819Z,96.10
2023-03-06T12:44:28.724Z,95.30
2023-03-06T12:47:02.620Z,95.10
2023-03-06T12:49:32.915Z,96.20
2023-03-06T12:52:01.345Z,96.90
2023-03-06T12:54:30.698Z,97.30
2023-03-06T12:56:59.591Z,97.60
2023-03-06T12:59:34.337Z,98.10
2023-03-06T13:02:01.597Z,96.70
2023-03-06T13:04:28.871Z,95.70
2023-03-06T13:07:11.290Z,96.20
2023-03-06T13:09:38.514Z,96.10
2023-03-06T13:12:12.967Z,95.60
2023-03-06T13:14:48.642Z,95.70
2023-03-06T13:17:24.164Z,96.30
2023-03-06T13:20:09.924Z,96.70
2023-03-06T13:22:37.201Z,96.30
2023-03-06T13:25:19.653Z,95.70
2023-03-06T13:27:59.586Z,95.50
2023-03-06T13:30:38.896Z,96.30
2023-03-06T13:33:44.722Z,95.00
2023-03-06T13:36:26.950Z,95.90
2023-03-06T13:38:54.334Z,94.80
2023-03-06T13:41:27.687Z,95.20
2023-03-06T13:43:56.692Z,95.10
2023-03-06T13:46:29.075Z,95.50
2023-03-06T13:49:05.211Z,94.90
2023-03-06T13:51:34.706Z,93.90
2023-03-06T13:54:20.651Z,94.90
2023-03-06T13:57:06.480Z,94.60
2023-03-06T14:00:08.400Z,94.30
2023-03-06T14:02:58.149Z,94.90
2023-03-06T14:05:34.692Z,95.10
2023-03-06T14:08:06.522Z,95.40
2023-03-06T14:10:34.763Z,95.40
2023-03-06T14:13:15.754Z,95.30
2023-03-06T14:15:45.176Z,95.10
2023-03-06T14:18:50.912Z,95.30
2023-03-06T14:21:36.791Z,95.60
2023-03-06T14:24:04.915Z,95.10
2023-03-06T14:26:33.842Z,95.50
2023-03-06T14:29:02.041Z,95.90
2023-03-06T14:31:33.464Z,94.90
2023-03-06T14:34:02.522Z,95.80
2023-03-06T14:36:35.806Z,95.20
2023-03-06T14:39:05.543Z,96.10
2023-03-06T14:41:34.521Z,95.10
2023-03-06T14:44:20.539Z,95.50
2023-03-06T14:46:49.304Z,95.90
2023-03-06T14:49:18.491Z,95.50
2023-03-06T14:51:46.982Z,95.40
2023-03-06T14:54:19.973Z,95.20
2023-03-06T14:56:53.035Z,95.80
2023-03-06T14:59:26.528Z,95.80
2023-03-06T15:01:57.820Z,96.00
2023-03-06T15:04:35.163Z,96.00
2023-03-06T15:07:04.192Z,95.40
2023-03-06T15:09:32.420Z,95.60
2023-03-06T15:12:03.635Z,95.70
2023-03-06T15:14:36.656Z,96.10
2023-03-06T15:17:19.004Z,95.20
2023-03-06T15:19:47.321Z,95.10
2023-03-06T15:22:20.649Z,95.70
2023-03-06T15:24:47.866Z,96.20
2023-03-06T15:27:17.505Z,96.10
2023-03-06T15:29:44.711Z,95.90
2023-03-06T15:32:13.184Z,96.50
2023-03-06T15:34:40.370Z,95.30
2023-03-06T15:37:25.574Z,94.50
2023-03-06T15:40:04.456Z,94.80
2023-03-06T15:42:34.478Z,94.80
2023-03-06T15:45:05.593Z,94.70
2023-03-06T15:47:32.794Z,95.40
2023-03-06T15:50:00.021Z,95.00
2023-03-06T15:52:27.219Z,95.30
2023-03-06T15:54:54.582Z,95.50
2023-03-06T15:57:23.820Z,95.60
2023-03-06T15:59:51.360Z,95.50
2023-03-06T16:02:22.559Z,95.50
2023-03-06T16:04:50.441Z,95.50
2023-03-06T16:07:17.888Z,95.20
2023-03-06T16:09:45.075Z,95.00
2023-03-06T16:12:17.335Z,95.40
2023-03-06T16:14:45.229Z,95.00
2023-03-06T16:17:12.817Z,95.00
2023-03-06T16:19:40.352Z,95.30
2023-03-06T16:22:08.278Z,95.60
2023-03-06T16:24:35.869Z,95.40
2023-03-06T16:27:03.301Z,95.60
2023-03-06T16:29:30.849Z,95.80
2023-03-06T16:31:58.732Z,96.40
2023-03-06T16:34:26.035Z,96.10
2023-03-06T16:36:53.292Z,96.00
2023-03-06T16:39:21.706Z,95.90
2023-03-06T16:41:51.723Z,95.90
2023-03-06T16:44:19.156Z,96.20
2023-03-06T16:46:47.285Z,96.60
2023-03-06T16:49:19.004Z,96.90
2023-03-06T16:51:46.386Z,97.00
2023-03-06T16:54:13.893Z,97.50
2023-03-06T16:56:41.390Z,97.30
2023-03-06T16:59:09.267Z,97.70
2023-03-06T17:01:37.089Z,97.90
2023-03-06T17:04:04.412Z,98.40
2023-03-06T17:06:31.677Z,98.70
2023-03-06T17:09:00.044Z,99.10
2023-03-06T17:11:27.488Z,99.50
2023-03-06T17:13:55.442Z,99.90
2023-03-06T17:16:22.734Z,99.90
2023-03-06T17:18:49.993Z,99.90
2023-03-06T17:21:17.271Z,99.90
2023-03-06T17:23:44.808Z,99.90
2023-03-06T17:26:16.164Z,99.90
2023-03-06T17:28:43.400Z,99.90
2023-03-06T17:31:21.015Z,99.90
2023-03-06T17:33:48.401Z,99.90
2023-03-06T17:36:15.860Z,99.90
2023-03-06T17:38:43.427Z,99.90
2023-03-06T17:41:11.264Z,99.90
2023-03-06T17:43:39.120Z,99.90
2023-03-06T17:46:10.699Z,99.90
2023-03-06T17:48:38.147Z,99.90
2023-03-06T17:51:06.118Z,99.90
2023-03-06T17:53:33.611Z,99.90
2023-03-06T17:56:02.820Z,99.90
2023-03-06T17:58:30.066Z,99.90
2023-03-06T18:00:57.250Z,99.90
2023-03-06T18:03:24.490Z,99.90
2023-03-06T18:05:58.397Z,99.90
2023-03-06T18:08:25.648Z,99.90
2023-03-06T18:10:58.111Z,99.90
2023-03-06T18:13:25.305Z,99.90
2023-03-06T18:15:52.466Z,99.90
2023-03-06T18:18:20.414Z,99.90
2023-03-06T18:20:47.862Z,99.90
2023-03-06T18:23:15.096Z,99.90
2023-03-06T18:25:42.728Z,99.90
2023-03-06T18:28:10.596Z,99.90
2023-03-06T18:30:39.065Z,99.90
2023-03-06T18:33:06.359Z,99.90
2023-03-06T18:35:33.782Z,99.90
2023-03-06T18:38:00.978Z,99.90
2023-03-06T18:40:28.225Z,99.90
2023-03-06T18:42:55.428Z,99.90
2023-03-06T18:45:22.654Z,99.90
2023-03-06T18:47:49.878Z,99.90
2023-03-06T18:50:17.695Z,99.90
2023-03-06T18:52:44.985Z,99.90
2023-03-06T18:55:12.600Z,99.90
2023-03-06T18:57:39.864Z,99.90
2023-03-06T19:00:07.618Z,99.90
2023-03-06T19:02:34.865Z,99.90
2023-03-06T19:05:02.443Z,99.90
2023-03-06T19:07:29.693Z,99.90
2023-03-06T19:09:56.880Z,99.90
2023-03-06T19:12:24.152Z,99.90
2023-03-06T19:14:51.317Z,99.90
2023-03-06T19:17:18.556Z,99.90
2023-03-06T19:19:48.878Z,99.90
2023-03-06T19:22:16.064Z,99.90
2023-03-06T19:24:43.233Z,99.90
2023-03-06T19:27:11.476Z,99.90
2023-03-06T19:29:38.736Z,99.90
2023-03-06T19:32:06.136Z,99.90
2023-03-06T19:34:33.454Z,99.90
2023-03-06T19:37:00.598Z,99.90
2023-03-06T19:39:27.869Z,99.90
2023-03-06T19:41:55.113Z,99.90
2023-03-06T19:44:23.246Z,99.90
2023-03-06T19:46:50.443Z,99.90
2023-03-06T19:49:18.223Z,99.90
2023-03-06T19:51:45.480Z,99.90
2023-03-06T19:54:13.252Z,99.90
2023-03-06T19:56:40.441Z,99.90
2023-03-06T19:59:07.665Z,99.90
2023-03-06T20:01:34.850Z,99.90
2023-03-06T20:04:02.121Z,99.90
2023-03-06T20:06:31.148Z,99.90
2023-03-06T20:08:58.427Z,99.90
2023-03-06T20:11:26.921Z,99.90
2023-03-06T20:13:54.109Z,99.90
2023-03-06T20:16:21.289Z,99.90
2023-03-06T20:18:48.565Z,99.90
2023-03-06T20:21:15.832Z,99.90
2023-03-06T20:23:43.278Z,99.90
2023-03-06T20:26:12.312Z,99.90
2023-03-06T20:28:41.155Z,99.90
2023-03-06T20:31:09.334Z,99.90
2023-03-06T20:33:36.851Z,99.90
2023-03-06T20:36:04.280Z,99.90
2023-03-06T20:38:31.613Z,99.90
2023-03-06T20:40:59.735Z,99.90
2023-03-06T20:43:26.926Z,99.90
2023-03-06T20:46:02.171Z,99.90
2023-03-06T20:48:29.742Z,99.90
2023-03-06T20:51:04.987Z,99.90
2023-03-06T20:53:32.631Z,99.90
2023-03-06T20:55:59.897Z,99.90
2023-03-06T20:58:30.034Z,99.90
2023-03-06T21:00:57.758Z,99.90
2023-03-06T21:03:25.497Z,99.90
2023-03-06T21:05:52.715Z,99.90
2023-03-06T21:08:19.952Z,99.90
2023-03-06T21:10:47.164Z,99.90
2023-03-06T21:13:14.561Z,99.90
2023-03-06T21:15:42.995Z,99.90
2023-03-06T21:18:10.857Z,99.90
2023-03-06T21:20:38.955Z,99.90
2023-03-06T21:23:06.908Z,99.90
2023-03-06T21:25:34.283Z,99.90
2023-03-06T21:28:01.721Z,99.90
2023-03-06T21:30:29.346Z,99.90
2023-03-06T21:32:56.517Z,99.90
2023-03-06T21:35:23.673Z,99.90
2023-03-06T21:37:50.884Z,99.90
2023-03-06T21:40:18.245Z,99.90
2023-03-06T21:42:45.512Z,99.90
2023-03-06T21:45:12.767Z,99.90
2023-03-06T21:47:40.980Z,99.90
2023-03-06T21:50:09.616Z,99.90
2023-03-06T21:52:37.126Z,99.90
2023-03-06T21:55:04.643Z,99.90
2023-03-06T21:57:31.987Z,99.90
2023-03-06T21:59:59.267Z,99.90
2023-03-06T22:02:26.545Z,99.90
2023-03-06T22:04:53.958Z,99.90
2023-03-06T22:07:21.258Z,99.90
2023-03-06T22:09:48.463Z,99.90
2023-03-06T22:12:15.694Z,99.90
2023-03-06T22:14:45.685Z,99.90
2023-03-06T22:17:13.142Z,99.90
2023-03-06T22:19:41.581Z,99.90
2023-03-06T22:22:10.720Z,99.90
2023-03-06T22:24:38.052Z,99.90
2023-03-06T22:27:05.315Z,99.90
2023-03-06T22:29:32.509Z,99.90
2023-03-06T22:31:59.801Z,99.90
2023-03-06T22:34:27.609Z,99.90
2023-03-06T22:36:54.840Z,99.90
2023-03-06T22:39:22.001Z,99.90
2023-03-06T22:41:49.482Z,99.90
2023-03-06T22:44:18.073Z,99.90
2023-03-06T22:46:45.928Z,99.90
2023-03-06T22:49:13.792Z,99.90
2023-03-06T22:51:41.000Z,99.90
2023-03-06T22:54:08.851Z,99.90
2023-03-06T22:56:36.152Z,99.90
2023-03-06T22:59:03.440Z,99.90
2023-03-06T23:01:32.180Z,99.90
2023-03-06T23:04:00.516Z,99.90
2023-03-06T23:06:32.051Z,99.90
2023-03-06T23:09:02.210Z,99.90
2023-03-06T23:11:29.802Z,99.90
2023-03-06T23:14:15.610Z,99.90
2023-03-06T23:17:01.188Z,99.90
2023-03-06T23:19:48.526Z,99.90
2023-03-06T23:22:34.434Z,99.90
2023-03-06T23:25:19.873Z,99.90
2023-03-06T23:27:47.057Z,99.90
2023-03-06T23:30:14.347Z,99.90
2023-03-06T23:32:42.887Z,99.90
2023-03-06T23:35:10.966Z,99.90
2023-03-06T23:37:38.145Z,99.90
2023-03-06T23:40:07.808Z,99.90
2023-03-06T23:42:35.275Z,99.90
2023-03-06T23:45:02.524Z,99.90
2023-03-06T23:47:33.271Z,99.90
2023-03-06T23:50:00.506Z,99.90
2023-03-06T23:52:27.699Z,99.90
2023-03-06T23:54:54.857Z,99.90
2023-03-06T23:57:22.017Z,99.90
2023-03-06T23:59:49.251Z,99.90
